Time;durP1;ratioP1;P1;durP2;ratioP2;P2;SDS_P1;SDS_P2;PMS_P1;PMS_P2;Temp;Humidity;BMP_temperature;BMP_pressure;BME280_temperature;BME280_humidity;BME280_pressure;Samples;Min_cycle;Max_cycle;Signal;HPM_P1;HPM_P2
2024/01/28 00:01:59;;;;;;;916.87;847.70;;;-0.20;99.90;;;;;;4991911;28;20453;-69
2024/01/28 00:04:25;;;;;;;903.87;835.67;;;-0.20;99.90;;;;;;4991720;28;20859;-69
2024/01/28 00:06:52;;;;;;;909.83;841.33;;;-0.30;99.90;;;;;;4984995;28;20836;-69
2024/01/28 00:09:19;;;;;;;928.20;860.00;;;-0.30;99.90;;;;;;4987533;28;20462;-69
2024/01/28 00:11:47;;;;;;;920.93;851.33;;;-0.30;99.90;;;;;;4980106;28;20501;-69
2024/01/28 00:14:14;;;;;;;927.27;858.17;;;-0.30;99.90;;;;;;4986709;28;20473;-70
2024/01/28 00:16:41;;;;;;;940.60;871.03;;;-0.30;99.90;;;;;;4995146;28;20547;-69
2024/01/28 00:19:09;;;;;;;938.80;869.27;;;-0.30;99.90;;;;;;4987256;28;20454;-69
2024/01/28 00:21:36;;;;;;;938.20;867.47;;;-0.20;99.90;;;;;;4995191;28;20461;-70
2024/01/28 00:24:04;;;;;;;941.53;870.07;;;-0.20;99.90;;;;;;4985733;28;20483;-70
2024/01/28 00:26:36;;;;;;;971.70;900.30;;;-0.20;99.90;;;;;;4976026;28;20494;-69
2024/01/28 00:29:04;;;;;;;969.90;897.97;;;-0.20;99.90;;;;;;4992971;28;20464;-69
2024/01/28 00:31:31;;;;;;;958.50;885.80;;;-0.20;99.90;;;;;;4994089;28;20462;-70
2024/01/28 00:33:58;;;;;;;953.03;880.47;;;-0.20;99.90;;;;;;4987005;28;20498;-70
2024/01/28 00:36:25;;;;;;;942.90;870.97;;;-0.20;99.90;;;;;;4994876;28;20453;-70
2024/01/28 00:38:51;;;;;;;952.13;879.33;;;-0.20;99.90;;;;;;4994941;28;20458;-70
2024/01/28 00:41:22;;;;;;;958.33;885.60;;;-0.20;99.90;;;;;;4986979;28;20552;-70
2024/01/28 00:43:49;;;;;;;938.90;867.10;;;-0.30;99.90;;;;;;4994579;28;20465;-70
2024/01/28 00:46:17;;;;;;;938.92;866.83;;;-0.20;99.90;;;;;;4983981;28;20841;-69
2024/01/28 00:48:44;;;;;;;944.67;872.60;;;-0.20;99.90;;;;;;4975289;28;20587;-69
2024/01/28 00:51:11;;;;;;;947.00;875.10;;;-0.30;99.90;;;;;;4974983;28;20860;-70
2024/01/28 00:53:38;;;;;;;949.73;878.20;;;-0.30;99.90;;;;;;4989671;28;20691;-70
2024/01/28 00:56:05;;;;;;;963.53;891.80;;;-0.20;99.90;;;;;;4979079;28;20463;-70
2024/01/28 00:58:33;;;;;;;961.63;888.73;;;-0.20;99.90;;;;;;4994668;28;20465;-69
2024/01/28 01:01:00;;;;;;;959.77;887.70;;;-0.20;99.90;;;;;;4985699;28;20462;-70
2024/01/28 01:03:28;;;;;;;960.93;889.77;;;-0.20;99.90;;;;;;4987496;28;20469;-70
2024/01/28 01:05:55;;;;;;;964.00;890.73;;;-0.20;99.90;;;;;;4988097;28;20485;-69
2024/01/28 01:08:21;;;;;;;957.05;883.10;;;-0.20;99.90;;;;;;4990897;28;20840;-71
2024/01/28 01:10:48;;;;;;;961.40;887.53;;;-0.20;99.90;;;;;;4974753;28;20203;-69
2024/01/28 01:13:15;;;;;;;966.03;893.33;;;-0.20;99.90;;;;;;4978804;28;20497;-70
2024/01/28 01:15:42;;;;;;;967.20;895.93;;;-0.30;99.90;;;;;;4991562;28;20458;-70
2024/01/28 01:18:09;;;;;;;963.87;892.83;;;-0.30;99.90;;;;;;4991414;28;20446;-70
2024/01/28 01:20:38;;;;;;;965.50;893.70;;;-0.40;99.90;;;;;;4988232;28;20516;-69
2024/01/28 01:23:05;;;;;;;966.60;895.30;;;-0.40;99.90;;;;;;4994353;28;20465;-69
2024/01/28 01:25:32;;;;;;;969.40;897.20;;;-0.40;99.90;;;;;;4994248;28;20454;-69
2024/01/28 01:27:58;;;;;;;973.17;899.57;;;-0.40;99.90;;;;;;4994273;28;20838;-70
2024/01/28 01:30:25;;;;;;;969.20;896.93;;;-0.40;99.90;;;;;;4992173;28;20458;-70
2024/01/28 01:32:52;;;;;;;965.03;892.83;;;-0.40;99.90;;;;;;4985814;28;20497;-70
2024/01/28 01:35:19;;;;;;;970.47;897.03;;;-0.40;99.90;;;;;;4986249;28;20446;-70
2024/01/28 01:37:48;;;;;;;972.10;899.90;;;-0.50;99.90;;;;;;4989458;28;20451;-69
2024/01/28 01:40:15;;;;;;;967.20;893.20;;;-0.50;99.90;;;;;;4993091;28;20456;-69
2024/01/28 01:42:43;;;;;;;955.65;883.50;;;-0.50;99.90;;;;;;4993741;28;20565;-69
2024/01/28 01:45:10;;;;;;;944.67;872.43;;;-0.50;99.90;;;;;;4977988;28;20218;-69
2024/01/28 01:47:37;;;;;;;938.00;867.80;;;-0.30;99.90;;;;;;4993611;28;20470;-69
2024/01/28 01:50:05;;;;;;;953.87;882.93;;;-0.30;99.90;;;;;;4993502;28;20453;-70
2024/01/28 01:52:33;;;;;;;959.07;888.80;;;-0.30;99.90;;;;;;4988443;28;20491;-69
2024/01/28 01:55:02;;;;;;;962.43;892.93;;;-0.30;99.90;;;;;;4986033;28;20456;-69
2024/01/28 01:57:30;;;;;;;961.60;893.07;;;-0.40;99.90;;;;;;4993534;28;20450;-69
2024/01/28 01:59:57;;;;;;;965.77;896.30;;;-0.50;99.90;;;;;;4993072;28;20849;-70
2024/01/28 02:02:25;;;;;;;966.23;898.23;;;-0.60;99.90;;;;;;4993072;28;20466;-70
2024/01/28 02:04:52;;;;;;;959.63;891.37;;;-0.50;99.90;;;;;;4993454;28;20953;-69
2024/01/28 02:07:18;;;;;;;968.07;900.30;;;-0.60;99.90;;;;;;4993460;28;20453;-70
2024/01/28 02:09:45;;;;;;;967.70;898.40;;;-0.60;99.90;;;;;;4993191;28;20834;-69
2024/01/28 02:12:13;;;;;;;955.37;886.40;;;-0.70;99.90;;;;;;4993197;28;20470;-69
2024/01/28 02:14:40;;;;;;;965.07;894.47;;;-0.70;99.90;;;;;;4978740;28;20481;-69
2024/01/28 02:17:07;;;;;;;966.77;896.67;;;-0.70;99.90;;;;;;4973951;28;20537;-69
2024/01/28 02:19:34;;;;;;;934.23;867.63;;;-0.60;99.90;;;;;;4988065;28;20467;-69
2024/01/28 02:22:00;;;;;;;850.47;789.63;;;-0.60;99.90;;;;;;4993141;28;20461;-69
2024/01/28 02:24:29;;;;;;;814.07;755.07;;;-0.60;99.90;;;;;;4988677;28;20836;-70
2024/01/28 02:26:55;;;;;;;815.27;754.87;;;-0.60;99.90;;;;;;4981860;28;20953;-70
2024/01/28 02:29:22;;;;;;;818.13;758.70;;;-0.60;99.90;;;;;;4980095;28;20462;-69
2024/01/28 02:31:49;;;;;;;799.50;740.70;;;-0.50;99.90;;;;;;4973864;28;20451;-70
2024/01/28 02:34:16;;;;;;;800.53;741.77;;;-0.40;99.90;;;;;;4982158;28;20478;-69
2024/01/28 02:36:42;;;;;;;790.08;732.47;;;-0.40;99.90;;;;;;4987953;28;20464;-69
2024/01/28 02:39:09;;;;;;;784.87;727.17;;;-0.40;99.90;;;;;;4992170;28;20696;-70
2024/01/28 02:41:37;;;;;;;786.53;728.67;;;-0.40;99.90;;;;;;4992656;28;20563;-69
2024/01/28 02:44:04;;;;;;;786.23;729.73;;;-0.40;99.90;;;;;;4985240;28;20473;-70
2024/01/28 02:46:31;;;;;;;782.63;726.88;;;-0.30;99.90;;;;;;4992901;28;20465;-70
2024/01/28 02:48:58;;;;;;;778.97;723.37;;;-0.30;99.90;;;;;;4991921;28;20203;-69
2024/01/28 02:51:25;;;;;;;775.20;720.17;;;-0.30;99.90;;;;;;4980249;28;20839;-69
2024/01/28 02:53:51;;;;;;;775.20;721.00;;;-0.40;99.90;;;;;;4973016;28;21021;-70
2024/01/28 02:56:18;;;;;;;772.42;717.58;;;-0.30;99.90;;;;;;4984709;28;20457;-70
2024/01/28 02:58:46;;;;;;;779.03;724.57;;;-0.30;99.90;;;;;;4992582;28;20206;-69
2024/01/28 03:01:13;;;;;;;787.67;732.97;;;-0.30;99.90;;;;;;4992492;28;20460;-69
2024/01/28 03:03:40;;;;;;;789.27;733.57;;;-0.30;99.90;;;;;;4992482;28;20476;-70
2024/01/28 03:06:07;;;;;;;785.80;730.60;;;-0.30;99.90;;;;;;4984368;28;20455;-69
2024/01/28 03:08:34;;;;;;;792.13;736.10;;;-0.30;99.90;;;;;;4992284;28;20524;-70
2024/01/28 03:11:01;;;;;;;781.40;724.30;;;-0.30;99.90;;;;;;4975321;28;20520;-70
2024/01/28 03:13:27;;;;;;;780.45;724.13;;;-0.20;99.90;;;;;;4977575;28;20491;-69
2024/01/28 03:15:56;;;;;;;782.10;726.87;;;-0.20;99.90;;;;;;4992801;28;20202;-70
2024/01/28 03:18:23;;;;;;;768.45;714.10;;;-0.10;99.90;;;;;;4978245;28;20472;-69
2024/01/28 03:20:50;;;;;;;760.37;706.17;;;-0.20;99.90;;;;;;4992385;28;20697;-70
2024/01/28 03:23:16;;;;;;;754.90;701.37;;;-0.20;99.90;;;;;;4989006;28;20475;-70
2024/01/28 03:25:43;;;;;;;768.83;717.27;;;-0.20;99.90;;;;;;4973216;28;20907;-70
2024/01/28 03:28:10;;;;;;;760.07;709.10;;;-0.20;99.90;;;;;;4972974;28;20463;-69
2024/01/28 03:30:37;;;;;;;755.00;703.77;;;-0.20;99.90;;;;;;4987350;28;20458;-69
2024/01/28 03:33:05;;;;;;;748.10;695.70;;;-0.10;99.90;;;;;;4991098;28;20878;-71
2024/01/28 03:35:32;;;;;;;745.03;694.20;;;-0.10;99.90;;;;;;4992192;28;20464;-69
2024/01/28 03:38:00;;;;;;;732.03;682.10;;;0.10;99.90;;;;;;4991789;28;20458;-69
2024/01/28 03:40:27;;;;;;;720.87;673.10;;;0.10;99.90;;;;;;4992107;28;20485;-69
2024/01/28 03:42:53;;;;;;;708.90;662.57;;;0.20;99.90;;;;;;4987961;28;20469;-70
2024/01/28 03:45:20;;;;;;;683.37;641.47;;;0.30;99.90;;;;;;4987715;28;20461;-69
2024/01/28 03:47:47;;;;;;;686.43;645.60;;;0.20;99.90;;;;;;4983875;28;20461;-69
2024/01/28 03:50:19;;;;;;;675.80;636.47;;;0.20;99.90;;;;;;4995680;28;20511;-70
2024/01/28 03:52:46;;;;;;;653.43;616.10;;;0.20;99.90;;;;;;4996209;28;21011;-70
2024/01/28 03:55:13;;;;;;;651.57;615.13;;;0.30;99.90;;;;;;4995956;28;20450;-70
2024/01/28 03:57:40;;;;;;;638.83;604.10;;;0.20;99.90;;;;;;4996005;28;20454;-70
2024/01/28 04:00:11;;;;;;;628.53;594.77;;;0.10;99.90;;;;;;4995501;28;20485;-70
2024/01/28 04:02:38;;;;;;;638.13;603.33;;;0.10;99.90;;;;;;4989749;28;20832;-69
2024/01/28 04:05:05;;;;;;;639.60;604.10;;;0.20;99.90;;;;;;4976065;28;20461;-70
2024/01/28 04:07:33;;;;;;;623.40;589.83;;;0.10;99.90;;;;;;4976335;28;20455;-70
2024/01/28 04:10:00;;;;;;;610.50;578.37;;;0.20;99.90;;;;;;4993000;28;20480;-69
2024/01/28 04:12:27;;;;;;;603.53;572.37;;;0.10;99.90;;;;;;4995498;28;20473;-69
2024/01/28 04:14:54;;;;;;;597.53;566.57;;;0.10;99.90;;;;;;4995300;28;20489;-71
2024/01/28 04:17:21;;;;;;;608.33;575.30;;;0.10;99.90;;;;;;4975731;28;21004;-69
2024/01/28 04:19:48;;;;;;;590.63;560.43;;;0.10;99.90;;;;;;4986333;28;20464;-70
2024/01/28 04:22:15;;;;;;;590.77;560.67;;;0.10;99.90;;;;;;4995167;28;20512;-70
2024/01/28 04:24:44;;;;;;;600.83;569.27;;;0.10;99.90;;;;;;4995312;28;20446;-69
2024/01/28 04:27:10;;;;;;;615.33;583.00;;;0.00;99.90;;;;;;4995664;28;20466;-70
2024/01/28 04:29:37;;;;;;;617.80;585.07;;;0.10;99.90;;;;;;4987075;28;20454;-70
2024/01/28 04:32:05;;;;;;;619.60;586.70;;;0.10;99.90;;;;;;4994870;28;20481;-70
2024/01/28 04:34:31;;;;;;;604.27;573.57;;;0.00;99.90;;;;;;4995896;28;20539;-70
2024/01/28 04:36:58;;;;;;;624.70;592.47;;;-0.10;99.90;;;;;;4994692;28;20458;-70
2024/01/28 04:39:25;;;;;;;627.73;595.10;;;-0.10;99.90;;;;;;4975616;28;20206;-70
2024/01/28 04:41:53;;;;;;;630.53;597.30;;;-0.20;99.90;;;;;;4975617;28;20470;-70
2024/01/28 04:44:20;;;;;;;630.50;597.00;;;-0.30;99.90;;;;;;4979335;28;20827;-69
2024/01/28 04:46:48;;;;;;;628.53;594.83;;;-0.40;99.90;;;;;;4995168;28;20465;-69
2024/01/28 04:49:15;;;;;;;622.10;588.90;;;-0.40;99.90;;;;;;4994788;28;20326;-69
2024/01/28 04:51:42;;;;;;;637.85;600.95;;;-0.50;99.90;;;;;;4994720;28;20928;-69
2024/01/28 04:54:09;;;;;;;655.43;619.00;;;-0.50;99.90;;;;;;4993951;28;20604;-70
2024/01/28 04:56:36;;;;;;;630.33;594.90;;;-0.50;99.90;;;;;;4994991;28;20910;-70
2024/01/28 04:59:04;;;;;;;643.77;605.77;;;-0.70;99.90;;;;;;4976928;28;20454;-70
2024/01/28 05:01:32;;;;;;;645.50;606.83;;;-0.70;99.90;;;;;;4980330;28;20464;-69
2024/01/28 05:04:00;;;;;;;681.80;639.40;;;-0.70;99.90;;;;;;4985898;28;20903;-69
2024/01/28 05:06:34;;;;;;;680.10;634.67;;;-0.70;99.90;;;;;;4987663;28;20465;-69
2024/01/28 05:09:01;;;;;;;682.53;636.27;;;-0.80;99.90;;;;;;4993621;28;20858;-70
2024/01/28 05:11:28;;;;;;;685.47;636.50;;;-0.80;99.90;;;;;;4994282;28;20464;-70
2024/01/28 05:13:55;;;;;;;682.88;634.42;;;-0.80;99.90;;;;;;4992099;28;20985;-70
2024/01/28 05:16:24;;;;;;;704.17;655.13;;;-0.80;99.90;;;;;;4994563;28;20203;-69
2024/01/28 05:18:51;;;;;;;704.00;653.00;;;-0.70;99.90;;;;;;4987580;28;20206;-69
2024/01/28 05:21:18;;;;;;;684.10;634.07;;;-0.70;99.90;;;;;;4994285;28;20883;-70
2024/01/28 05:23:45;;;;;;;694.47;644.30;;;-0.70;99.90;;;;;;4987698;28;20526;-69
2024/01/28 05:26:12;;;;;;;688.33;638.88;;;-0.70;99.90;;;;;;4985119;28;20457;-73
2024/01/28 05:28:39;;;;;;;688.93;639.10;;;-0.80;99.90;;;;;;4993989;28;20213;-70
2024/01/28 05:31:06;;;;;;;690.43;640.37;;;-0.90;99.90;;;;;;4984482;28;20455;-69
2024/01/28 05:33:37;;;;;;;686.27;636.17;;;-0.90;99.90;;;;;;4983835;28;20485;-69
2024/01/28 05:36:10;;;;;;;703.00;652.63;;;-0.90;99.90;;;;;;4996218;28;20476;-70
2024/01/28 05:38:37;;;;;;;713.13;661.73;;;-0.90;99.90;;;;;;4979784;28;20562;-69
2024/01/28 05:41:04;;;;;;;705.93;654.00;;;-0.80;99.90;;;;;;4987104;28;20465;-70
2024/01/28 05:43:31;;;;;;;702.57;650.90;;;-0.70;99.90;;;;;;4987621;28;20561;-69
2024/01/28 05:45:58;;;;;;;692.07;639.63;;;-0.70;99.90;;;;;;4993405;28;20457;-69
2024/01/28 05:48:25;;;;;;;717.45;665.38;;;-0.70;99.90;;;;;;4987075;28;20486;-70
2024/01/28 05:50:53;;;;;;;729.27;676.07;;;-0.60;99.90;;;;;;4993257;28;20204;-69
2024/01/28 05:53:20;;;;;;;715.07;662.93;;;-0.50;99.90;;;;;;4986767;28;20482;-69
2024/01/28 05:55:47;;;;;;;745.13;692.23;;;-0.30;99.90;;;;;;4983314;28;20536;-69
2024/01/28 05:58:14;;;;;;;720.07;668.43;;;-0.20;99.90;;;;;;4993479;28;20470;-69
2024/01/28 06:00:40;;;;;;;693.27;643.23;;;-0.20;99.90;;;;;;4988821;28;20545;-69
2024/01/28 06:03:07;;;;;;;684.73;636.23;;;-0.20;99.90;;;;;;4991192;28;20479;-70
2024/01/28 06:05:34;;;;;;;673.73;625.77;;;-0.10;99.90;;;;;;4986334;28;20454;-69
2024/01/28 06:08:02;;;;;;;637.90;593.57;;;0.00;99.90;;;;;;4992115;28;20464;-69
2024/01/28 06:10:29;;;;;;;579.83;544.63;;;0.20;99.90;;;;;;4990442;28;20460;-69
2024/01/28 06:12:56;;;;;;;533.40;504.83;;;0.50;99.90;;;;;;4990382;28;20485;-69
2024/01/28 06:15:23;;;;;;;476.03;452.77;;;0.40;99.90;;;;;;4981601;28;20483;-71
2024/01/28 06:17:49;;;;;;;414.57;396.43;;;0.50;99.90;;;;;;4989503;28;20446;-69
2024/01/28 06:20:16;;;;;;;356.53;342.03;;;0.60;99.90;;;;;;4992286;28;20858;-70
2024/01/28 06:22:43;;;;;;;322.80;310.10;;;0.80;99.90;;;;;;4993552;28;20478;-69
2024/01/28 06:25:11;;;;;;;300.93;289.47;;;0.70;99.90;;;;;;4993343;28;20539;-68
2024/01/28 06:27:38;;;;;;;253.80;244.40;;;0.70;99.90;;;;;;4993087;28;20462;-68
2024/01/28 06:30:05;;;;;;;228.90;220.80;;;0.70;99.90;;;;;;4976677;28;20462;-69
2024/01/28 06:32:32;;;;;;;203.43;195.90;;;0.80;99.90;;;;;;4992846;28;21015;-69
2024/01/28 06:34:59;;;;;;;186.53;179.30;;;0.80;99.90;;;;;;4984308;28;20528;-68
2024/01/28 06:37:26;;;;;;;180.73;174.23;;;0.70;99.90;;;;;;4992935;28;20451;-69
2024/01/28 06:39:53;;;;;;;199.97;192.47;;;0.70;99.90;;;;;;4976945;28;20466;-69
2024/01/28 06:42:21;;;;;;;200.57;193.47;;;0.70;99.90;;;;;;4985048;28;20477;-69
2024/01/28 06:44:48;;;;;;;198.53;191.63;;;0.60;99.90;;;;;;4992838;28;20445;-68
2024/01/28 06:47:15;;;;;;;200.90;193.63;;;0.60;99.90;;;;;;4990032;28;20542;-69
2024/01/28 06:49:42;;;;;;;203.97;196.40;;;0.60;99.90;;;;;;4972972;28;20462;-69
2024/01/28 06:52:09;;;;;;;233.40;224.53;;;0.60;99.90;;;;;;4975341;28;20499;-69
2024/01/28 06:54:40;;;;;;;209.47;202.07;;;0.60;99.90;;;;;;4992682;28;20491;-69
2024/01/28 06:57:07;;;;;;;223.23;215.13;;;0.60;99.90;;;;;;4993062;28;20500;-69
2024/01/28 06:59:35;;;;;;;233.50;225.17;;;0.60;99.90;;;;;;4992586;28;20489;-69
2024/01/28 07:02:02;;;;;;;221.20;213.80;;;0.60;99.90;;;;;;4992443;28;20466;-70
2024/01/28 07:04:29;;;;;;;232.47;224.37;;;0.60;99.90;;;;;;4988543;28;20447;-70
2024/01/28 07:06:56;;;;;;;237.10;229.10;;;0.50;99.90;;;;;;4974305;28;20899;-69
2024/01/28 07:09:22;;;;;;;247.17;237.87;;;0.40;99.90;;;;;;4984957;28;20965;-70
2024/01/28 07:11:49;;;;;;;285.40;274.93;;;0.30;99.90;;;;;;4992864;28;20458;-69
2024/01/28 07:14:17;;;;;;;318.07;306.37;;;0.30;99.90;;;;;;4991441;28;20868;-70
2024/01/28 07:16:45;;;;;;;334.70;322.30;;;0.40;99.90;;;;;;4996805;28;20485;-69
2024/01/28 07:19:12;;;;;;;400.93;385.23;;;0.10;99.90;;;;;;4997848;28;20453;-70
2024/01/28 07:21:38;;;;;;;396.43;381.20;;;0.20;99.90;;;;;;5000102;28;20458;-69
2024/01/28 07:24:06;;;;;;;398.60;382.40;;;0.30;99.90;;;;;;4994264;28;20556;-70
2024/01/28 07:26:33;;;;;;;353.83;339.57;;;0.40;99.90;;;;;;4996030;28;20459;-71
2024/01/28 07:29:00;;;;;;;317.93;305.20;;;0.50;99.90;;;;;;4992209;28;20949;-70
2024/01/28 07:31:27;;;;;;;274.53;264.10;;;0.60;99.90;;;;;;4994096;28;20451;-70
2024/01/28 07:33:55;;;;;;;242.23;233.03;;;0.70;99.90;;;;;;4990217;28;20541;-69
2024/01/28 07:36:22;;;;;;;208.17;199.70;;;0.90;99.90;;;;;;4991807;28;20450;-70
2024/01/28 07:38:48;;;;;;;191.13;184.23;;;1.00;99.90;;;;;;4995685;28;20460;-70
2024/01/28 07:41:16;;;;;;;176.43;170.17;;;0.90;99.90;;;;;;4997584;28;20469;-70
2024/01/28 07:43:43;;;;;;;164.70;157.87;;;1.00;99.90;;;;;;4998273;28;20560;-69
2024/01/28 07:46:10;;;;;;;156.77;151.00;;;1.00;99.90;;;;;;4998569;28;20956;-69
2024/01/28 07:48:37;;;;;;;138.93;133.27;;;1.00;99.90;;;;;;4998064;28;20893;-71
2024/01/28 07:51:05;;;;;;;96.13;92.03;;;1.10;99.90;;;;;;4991831;28;20459;-70
2024/01/28 07:53:32;;;;;;;62.57;59.87;;;1.20;99.90;;;;;;4994570;28;20472;-70
2024/01/28 07:56:00;;;;;;;43.23;40.90;;;1.30;99.90;;;;;;4998538;28;20479;-70
2024/01/28 07:58:27;;;;;;;33.17;30.33;;;1.40;99.90;;;;;;4998401;28;20454;-70
2024/01/28 08:00:54;;;;;;;26.00;24.37;;;1.50;99.90;;;;;;4992565;28;20457;-70
2024/01/28 08:03:21;;;;;;;17.77;15.83;;;1.50;99.90;;;;;;4993717;28;20937;-70
2024/01/28 08:05:49;;;;;;;17.53;15.80;;;1.60;99.90;;;;;;4997971;28;20442;-69
2024/01/28 08:08:17;;;;;;;17.50;15.83;;;1.60;99.90;;;;;;4997920;28;20540;-70
2024/01/28 08:10:44;;;;;;;17.17;15.60;;;1.60;99.90;;;;;;5004435;28;20456;-69
2024/01/28 08:13:11;;;;;;;12.93;11.20;;;1.70;99.90;;;;;;4983669;28;20466;-70
2024/01/28 08:15:38;;;;;;;12.27;10.40;;;1.70;99.90;;;;;;4993034;28;20854;-69
2024/01/28 08:18:05;;;;;;;10.77;9.07;;;1.80;99.90;;;;;;4996986;28;20461;-69
2024/01/28 08:20:31;;;;;;;13.43;10.63;;;1.80;99.90;;;;;;4995835;28;20803;-69
2024/01/28 08:22:58;;;;;;;10.60;8.20;;;1.80;99.90;;;;;;4994270;28;20849;-69
2024/01/28 08:25:26;;;;;;;14.43;7.87;;;1.90;99.90;;;;;;4995094;28;20832;-70
2024/01/28 08:27:53;;;;;;;10.33;7.80;;;1.90;99.90;;;;;;4991803;28;20463;-70
2024/01/28 08:30:22;;;;;;;12.00;6.87;;;1.90;99.90;;;;;;4994395;28;20455;-70
2024/01/28 08:32:49;;;;;;;12.13;6.63;;;1.90;99.90;;;;;;4987850;28;20469;-70
2024/01/28 08:35:18;;;;;;;13.43;5.80;;;2.00;99.90;;;;;;4993967;28;20474;-71
2024/01/28 08:37:45;;;;;;;14.90;6.10;;;2.10;99.90;;;;;;4989473;28;20466;-70
2024/01/28 08:40:12;;;;;;;8.53;6.47;;;2.10;99.90;;;;;;4994242;28;21034;-69
2024/01/28 08:42:40;;;;;;;13.23;5.70;;;2.20;99.90;;;;;;4994593;28;20481;-70
2024/01/28 08:45:07;;;;;;;11.33;5.13;;;2.30;99.90;;;;;;4994805;28;20542;-69
2024/01/28 08:47:34;;;;;;;15.13;5.80;;;2.40;99.90;;;;;;4991408;28;20468;-70
2024/01/28 08:50:01;;;;;;;13.63;5.85;;;2.40;99.90;;;;;;4991181;28;20484;-70
2024/01/28 08:52:28;;;;;;;11.17;5.03;;;2.50;99.90;;;;;;4994152;28;20225;-70
2024/01/28 08:54:55;;;;;;;17.20;7.10;;;2.50;99.90;;;;;;4982344;28;20495;-70
2024/01/28 08:57:21;;;;;;;19.43;4.90;;;2.60;99.90;;;;;;4982203;28;20453;-69
2024/01/28 08:59:49;;;;;;;10.73;5.27;;;2.70;99.90;;;;;;4994095;28;20461;-72
2024/01/28 09:02:16;;;;;;;9.23;5.63;;;2.70;99.90;;;;;;4993598;28;20470;-69
2024/01/28 09:04:43;;;;;;;14.43;5.47;;;2.70;99.90;;;;;;4990589;28;20832;-70
2024/01/28 09:07:10;;;;;;;14.10;4.43;;;2.70;99.90;;;;;;4995053;28;20834;-70
2024/01/28 09:09:37;;;;;;;8.53;4.53;;;2.80;99.90;;;;;;4994464;28;20475;-70
2024/01/28 09:12:04;;;;;;;11.43;4.63;;;2.80;99.90;;;;;;4994457;28;20477;-70
2024/01/28 09:14:31;;;;;;;14.10;5.50;;;2.90;99.90;;;;;;4988910;28;20482;-69
2024/01/28 09:16:59;;;;;;;9.00;5.00;;;2.90;99.90;;;;;;4992994;28;20855;-69
2024/01/28 09:19:26;;;;;;;7.97;4.77;;;3.00;99.90;;;;;;4993799;28;20452;-69
2024/01/28 09:21:53;;;;;;;8.27;4.90;;;3.00;99.90;;;;;;4993990;28;20472;-70
2024/01/28 09:24:19;;;;;;;8.77;4.23;;;3.10;99.90;;;;;;4993950;28;20829;-70
2024/01/28 09:26:46;;;;;;;12.27;4.53;;;3.20;99.90;;;;;;4994258;28;20456;-70
2024/01/28 09:29:13;;;;;;;8.97;4.13;;;3.40;99.90;;;;;;4992272;28;20457;-70
2024/01/28 09:31:44;;;;;;;9.83;4.40;;;3.30;99.90;;;;;;4994202;28;20859;-70
2024/01/28 09:34:13;;;;;;;18.97;9.40;;;3.40;99.90;;;;;;4992949;28;20461;-70
2024/01/28 09:36:39;;;;;;;9.30;4.30;;;3.50;99.90;;;;;;4990479;28;21045;-70
2024/01/28 09:39:06;;;;;;;11.17;5.13;;;3.50;99.90;;;;;;4985241;28;20458;-70
2024/01/28 09:41:42;;;;;;;8.33;4.63;;;3.60;99.90;;;;;;4989548;28;20456;-70
2024/01/28 09:44:09;;;;;;;9.83;4.90;;;3.70;99.90;;;;;;4992536;28;20453;-71
2024/01/28 09:46:37;;;;;;;12.13;4.33;;;3.80;99.90;;;;;;4993355;28;20489;-70
2024/01/28 09:49:05;;;;;;;8.50;4.90;;;3.90;99.90;;;;;;4992684;28;20457;-69
2024/01/28 09:51:33;;;;;;;14.40;4.57;;;3.90;99.90;;;;;;4993609;28;20453;-70
2024/01/28 09:54:00;;;;;;;16.80;5.00;;;4.00;99.90;;;;;;4993620;28;20473;-70
2024/01/28 09:56:27;;;;;;;8.77;4.43;;;4.10;99.90;;;;;;4989755;28;20481;-70
2024/01/28 09:58:54;;;;;;;9.93;4.37;;;4.20;99.90;;;;;;4992661;28;20450;-70
2024/01/28 10:01:24;;;;;;;7.20;4.20;;;4.30;99.90;;;;;;4985370;28;20451;-70
2024/01/28 10:03:51;;;;;;;13.30;5.57;;;4.30;99.90;;;;;;4973972;28;20471;-70
2024/01/28 10:06:18;;;;;;;9.23;4.90;;;4.40;99.90;;;;;;4974245;28;20451;-70
2024/01/28 10:08:47;;;;;;;7.13;4.73;;;4.40;99.90;;;;;;4974002;28;20477;-71
2024/01/28 10:11:15;;;;;;;11.73;4.47;;;4.50;99.90;;;;;;4973894;28;20466;-70
2024/01/28 10:13:42;;;;;;;14.63;4.77;;;4.60;99.90;;;;;;4974103;28;20848;-70
2024/01/28 10:16:09;;;;;;;14.77;4.77;;;4.70;99.90;;;;;;4992232;28;20495;-70
2024/01/28 10:18:36;;;;;;;6.73;3.57;;;4.70;99.90;;;;;;4979701;28;20451;-70
2024/01/28 10:21:02;;;;;;;9.30;4.40;;;4.80;99.90;;;;;;4979681;28;20468;-71
2024/01/28 10:23:29;;;;;;;8.03;4.57;;;4.90;99.90;;;;;;4993355;28;20485;-70
2024/01/28 10:26:00;;;;;;;11.83;5.10;;;5.00;99.90;;;;;;4993202;28;20818;-70
2024/01/28 10:28:29;;;;;;;7.67;4.30;;;5.10;99.90;;;;;;4987340;28;20446;-70
2024/01/28 10:30:56;;;;;;;8.97;4.30;;;5.10;99.90;;;;;;4989621;28;20446;-70
2024/01/28 10:33:23;;;;;;;10.33;4.23;;;5.50;99.90;;;;;;4993166;28;20473;-70
2024/01/28 10:35:50;;;;;;;13.80;4.00;;;5.60;98.40;;;;;;4993097;28;21005;-70
2024/01/28 10:38:20;;;;;;;10.70;4.70;;;5.80;96.40;;;;;;4993051;28;20445;-70
2024/01/28 10:40:48;;;;;;;11.63;4.70;;;5.90;96.50;;;;;;4992254;28;20858;-71
2024/01/28 10:43:17;;;;;;;8.83;4.87;;;6.00;96.50;;;;;;4990728;28;20508;-70
2024/01/28 10:45:49;;;;;;;9.20;4.00;;;6.00;96.50;;;;;;4988376;28;20472;-71
2024/01/28 10:48:18;;;;;;;10.77;4.40;;;6.40;96.70;;;;;;4984563;28;20454;-70
2024/01/28 10:50:47;;;;;;;9.73;4.70;;;7.00;91.40;;;;;;4991777;28;20454;-69
2024/01/28 10:53:15;;;;;;;16.17;4.23;;;7.70;90.50;;;;;;4981670;28;20479;-71
2024/01/28 10:55:42;;;;;;;12.67;4.30;;;8.20;90.40;;;;;;4973213;28;20494;-69
2024/01/28 10:58:10;;;;;;;8.40;4.10;;;8.50;76.60;;;;;;4991224;28;20500;-70
2024/01/28 11:00:39;;;;;;;10.27;3.93;;;8.90;76.90;;;;;;4992149;28;20966;-70
2024/01/28 11:03:07;;;;;;;8.50;4.07;;;8.80;69.80;;;;;;4984342;28;20481;-69
2024/01/28 11:05:35;;;;;;;8.90;3.70;;;8.70;68.90;;;;;;4991888;28;20453;-70
2024/01/28 11:08:02;;;;;;;10.13;3.50;;;8.50;76.30;;;;;;4992074;28;20945;-70
2024/01/28 11:10:29;;;;;;;13.60;4.33;;;8.20;75.10;;;;;;4979738;28;20463;-69
2024/01/28 11:12:56;;;;;;;9.53;4.10;;;8.00;76.20;;;;;;4972870;28;20500;-70
2024/01/28 11:15:26;;;;;;;9.47;3.60;;;7.80;76.10;;;;;;4976851;28;20783;-69
2024/01/28 11:17:56;;;;;;;13.97;4.77;;;7.60;75.80;;;;;;4992915;28;20456;-69
2024/01/28 11:20:27;;;;;;;10.27;3.93;;;7.50;75.80;;;;;;4984586;28;20450;-70
2024/01/28 11:22:56;;;;;;;8.60;4.53;;;7.50;75.80;;;;;;4992518;28;20469;-70
2024/01/28 11:25:24;;;;;;;11.37;3.43;;;7.40;75.70;;;;;;4988455;28;20501;-69
2024/01/28 11:27:52;;;;;;;12.03;4.23;;;7.40;75.70;;;;;;4972004;28;20559;-71
2024/01/28 11:30:23;;;;;;;10.50;3.70;;;7.40;75.70;;;;;;4971575;28;20465;-70
2024/01/28 11:32:52;;;;;;;9.17;4.10;;;7.50;75.80;;;;;;4972595;28;20470;-69
2024/01/28 11:35:21;;;;;;;8.37;4.20;;;7.50;75.80;;;;;;4991651;28;20449;-70
2024/01/28 11:37:53;;;;;;;9.70;4.17;;;7.50;75.80;;;;;;4976840;28;20570;-69
2024/01/28 11:40:23;;;;;;;9.77;4.00;;;7.50;75.80;;;;;;4980459;28;20457;-70
2024/01/28 11:42:53;;;;;;;8.47;4.00;;;7.70;76.00;;;;;;4979047;28;20469;-70
2024/01/28 11:45:20;;;;;;;8.53;3.90;;;7.90;76.10;;;;;;4983172;28;20467;-71
2024/01/28 11:47:47;;;;;;;8.07;3.93;;;8.70;76.80;;;;;;4976760;28;20454;-69
2024/01/28 11:50:14;;;;;;;9.13;4.60;;;9.60;74.90;;;;;;4987899;28;20445;-72
2024/01/28 11:52:43;;;;;;;9.83;4.40;;;10.40;61.30;;;;;;4978407;28;20469;-69
2024/01/28 11:55:12;;;;;;;8.50;3.80;;;10.80;61.70;;;;;;4989912;28;20457;-70
2024/01/28 11:57:40;;;;;;;10.03;5.60;;;11.30;53.80;;;;;;4978682;28;20457;-70
2024/01/28 12:00:09;;;;;;;10.83;4.00;;;11.70;54.10;;;;;;4992277;28;20464;-69
2024/01/28 12:02:37;;;;;;;10.10;3.90;;;11.90;45.60;;;;;;4994478;28;20473;-70
2024/01/28 12:05:04;;;;;;;11.07;3.80;;;12.10;45.80;;;;;;4996251;28;20556;-70
2024/01/28 12:07:31;;;;;;;9.30;4.03;;;12.40;46.10;;;;;;4982954;28;20525;-69
2024/01/28 12:10:02;;;;;;;14.07;3.23;;;12.60;37.40;;;;;;4976039;28;20479;-70
2024/01/28 12:12:29;;;;;;;6.43;3.10;;;12.80;37.60;;;;;;4975865;28;20558;-70
2024/01/28 12:14:59;;;;;;;10.17;4.80;;;12.90;37.60;;;;;;4976300;28;20473;-69
2024/01/28 12:17:25;;;;;;;9.40;3.83;;;12.90;29.10;;;;;;4995888;28;20481;-70
2024/01/28 12:19:53;;;;;;;10.50;3.80;;;13.00;29.10;;;;;;4995353;28;20470;-69
2024/01/28 12:22:20;;;;;;;8.67;3.57;;;13.20;29.30;;;;;;4995530;28;20473;-70
2024/01/28 12:24:47;;;;;;;8.37;3.10;;;13.40;24.00;;;;;;4988497;28;20841;-70
2024/01/28 12:27:17;;;;;;;9.80;3.40;;;13.50;22.30;;;;;;4986769;28;20445;-70